• Join FlightAware (Why Join?)
  • Login
  • US Flag 
05:55AM EDT


 

Airport Tracker/Info


-or-


 

Live Flight TrackerFlight Track Log ✈ N560KL ✈ 25-Aug-2013 ✈ KMVY - KBED

Flight Track Log - Related Links

Times and Time Zones

All times are in EDT time to prevent confusion due to time zone crossing. See the N560KL flight status page for this flight to view local times or setup timezone preferences in your user account.

Time Position Orientation Groundspeed Altitude Reporting Facility
EDT Latitude Longitude Course Direction KTS MPH feet Rate Location/Type
02:57PM 41.7223 -70.5822 North  Level FlightAware Approximate
02:58PM 41.7788 -70.5772 North  Level FlightAware Approximate
02:59PM 41.8352 -70.5723 North  Level FlightAware Approximate
02:59PM 41.7333 -70.6833 317° Northwest 255 293 4,000  Level KA90
03:00PM 41.8917 -70.5674 North  Level FlightAware Approximate
03:00PM 41.8167 -70.7500 329° Northwest 254 292 4,000  Level KA90
03:01PM 41.9353 -70.6108 317° Northwest  Level FlightAware Approximate
03:01PM 41.8667 -70.7833 334° Northwest 257 296 4,000  Level KA90
03:02PM 41.9768 -70.6626 317° Northwest  Level FlightAware Approximate
03:02PM 41.9167 -70.8667 309° West 258 297 3,900  Level KA90
03:03PM 42.0182 -70.7145 317° Northwest  Level FlightAware Approximate
03:03PM 41.9667 -70.9167 323° Northwest 240 276 3,900  Level KA90
03:04PM 42.0596 -70.7664 317° Northwest  Level FlightAware Approximate
03:04PM 42.0000 -71.0000 298° West 235 270 3,400  Level KA90
03:05PM 42.0333 -71.0667 304° West 232 267 3,000 -300 Descending KA90
03:06PM 42.0667 -71.1500 298° West 227 261 2,900  Descending KA90
03:07PM 42.0833 -71.2167 289° West 239 275 3,000  Climbing KA90
03:08PM 42.1167 -71.3167 294° West 239 275 3,000  Level KA90
03:09PM 42.1833 -71.3667 331° Northwest 246 283 3,000  Level KA90
03:10PM 42.2333 -71.4167 323° Northwest 248 285 3,000  Level KA90
03:11PM 42.3000 -71.4333 350° North 251 289 3,000  Level KA90
03:12PM 42.3667 -71.4500 350° North 247 284 3,000  Level KA90
03:13PM 42.4333 -71.4667 350° North 254 292 3,000 -180 Level KA90
03:14PM 42.4833 -71.4000 45° Northeast 247 284 2,700 -600 Descending KA90
03:15PM 42.5167 -71.3333 56° Northeast 208 239 1,800 -540 Descending KA90
03:16PM 42.5167 -71.2500 90° East 219 252 1,700 -540 Descending KA90
03:17PM 42.4667 -71.2333 166° South 156 180 800 -900 Descending KA90
03:19PM 42.4667 -71.2833 206° Southwest  Level FlightAware Approximate
03:26PM 42.4699 -71.2890 206° Southwest  Level Estimated
03:27PM 42.4667 -71.2833 206° Southwest  Level FlightAware Approximate